Fruita, CO (81521)

4:41 AM MDT on August 30, 2015 (GMT -0600)
Comstock West | | Change Station
CLOSE
Current Station
Personal Weather Station
Location: Fruita, CO
Elevation: 4507 ft
Nearby Weather Stations

Elev 4507 ft 39.17 °N, 108.74 °W | Updated 1 minute ago

Clear
Clear
54.2 °F
Feels Like 54.2 °F
N
0.0
Wind Variable Wind from East
Gusts 0.0 mph

Today
High -- | Low -- °F
--% Chance of Precip.
Yesterday
High -- | Low -- °F
Precip. -- in
6:41 AM 7:48 PM
Full, 99% visible
Pressure 29.86 in
Visibility 10.0 miles
Clouds Clear
Dew Point 46 °F
Humidity 75%
Rainfall 0.00 in
Snow Depth Not available.
UV 0 out of 12
Pollen 9.90 out of 12
Air Quality Not available.
Flu Activity Not available.
METAR KGJT 300953Z AUTO 07005KT 10SM CLR 17/05 A3007 RMK AO2 SLP111 T01720050
Pressure 29.86 in
Visibility 10.0 miles
Clouds Clear
Dew Point 46 °F
Humidity 75%
Rainfall 0.00 in
Snow Depth Not available.
UV 0 out of 12
Pollen 9.90 out of 12
Air Quality Not available.
Flu Activity Not available.
METAR KGJT 300953Z AUTO 07005KT 10SM CLR 17/05 A3007 RMK AO2 SLP111 T01720050

10-Day Weather Forecast

×

Almanac

Astronomy

Aug. 30, 2015 Rise Set
Actual Time
Civil Twilight
Nautical Twilight
Astronomical Twilight
Moon
Length of Visible Light
Length of Day
Tomorrow will be .
, % of the Moon is Illuminated

Today's Extremes

State Highs State Lows

Community

WunderPhotos

Upload Photos

1,850,925 photos uploaded!

WunderBlogs® & News

Nearby

Air Quality

  Air Quality AQ Index Pollutant
Not available.

Snow Depth

Station Depth Elevation

Earthquake Activity

City Distance Mag. Time & Date
Minimum magnitude displayed is 2.5.

Coastal Water Temperatures

Place Temperature

Stations

Nearby Weather Stations

Station Location Temp. Windchill Dew Point Humidity Wind Precip. Elev Updated Type